Time;durP1;ratioP1;P1;durP2;ratioP2;P2;SDS_P1;SDS_P2;PMS_P1;PMS_P2;Temp;Humidity;BMP_temperature;BMP_pressure;BME280_temperature;BME280_humidity;BME280_pressure;Samples;Min_cycle;Max_cycle;Signal;HPM_P1;HPM_P2
2021/06/24 00:02:15;;;;;;;11.57;8.37;;;19.20;1.00;;;;;;5057847;28;20490;-74
2021/06/24 00:04:42;;;;;;;11.30;8.17;;;19.30;1.00;;;;;;5064287;28;20807;-76
2021/06/24 00:07:24;;;;;;;17.73;9.53;;;19.30;1.00;;;;;;5053153;28;20550;-77
2021/06/24 00:09:50;;;;;;;19.13;7.80;;;;;;;;;;5052958;28;20962;-76
2021/06/24 00:12:24;;;;;;;20.33;10.13;;;19.20;1.00;;;;;;5053368;28;20831;-77
2021/06/24 00:14:49;;;;;;;18.70;9.77;;;19.20;1.00;;;;;;5067415;28;20441;-76
2021/06/24 00:17:30;;;;;;;20.43;9.63;;;19.10;1.00;;;;;;5073373;28;20424;-76
2021/06/24 00:20:00;;;;;;;16.30;9.17;;;19.10;1.00;;;;;;5073226;28;20501;-76
2021/06/24 00:22:47;;;;;;;12.90;8.30;;;19.10;1.00;;;;;;5059383;28;20774;-76
2021/06/24 00:25:18;;;;;;;18.20;9.27;;;19.10;1.00;;;;;;5053073;28;20393;-76
2021/06/24 00:27:44;;;;;;;18.70;9.23;;;19.10;1.00;;;;;;5053003;28;20482;-76
2021/06/24 00:30:53;;;;;;;19.17;9.77;;;19.10;1.00;;;;;;5052989;28;20539;-76
2021/06/24 00:33:24;;;;;;;11.10;8.70;;;19.10;1.00;;;;;;5053227;28;20224;-76
2021/06/24 00:36:11;;;;;;;16.60;9.00;;;19.10;1.00;;;;;;5053321;28;20398;-77
2021/06/24 00:38:37;;;;;;;15.30;8.60;;;19.10;1.00;;;;;;5053004;28;20956;-77
2021/06/24 00:41:19;;;;;;;14.43;9.10;;;19.10;1.00;;;;;;5052569;28;20411;-77
2021/06/24 00:44:35;;;;;;;12.33;8.90;;;19.10;1.00;;;;;;5065550;28;20178;-77
2021/06/24 00:47:01;;;;;;;19.37;10.10;;;19.20;1.00;;;;;;5070114;28;20424;-76
2021/06/24 00:49:27;;;;;;;20.07;9.73;;;;;;;;;;5052964;28;20496;-74
2021/06/24 00:51:54;;;;;;;16.67;9.60;;;19.10;1.00;;;;;;5053021;28;20181;-74
2021/06/24 00:54:20;;;;;;;17.07;9.20;;;;;;;;;;5070380;28;20458;-74
2021/06/24 00:56:47;;;;;;;15.50;9.27;;;19.20;1.00;;;;;;5059681;28;20388;-74
2021/06/24 00:59:13;;;;;;;14.33;9.17;;;19.10;1.00;;;;;;5052883;28;20396;-74
2021/06/24 01:01:39;;;;;;;15.30;9.00;;;19.10;1.00;;;;;;5062756;28;20508;-74
2021/06/24 01:04:06;;;;;;;13.00;8.50;;;19.10;1.00;;;;;;5053864;28;20195;-74
2021/06/24 01:06:33;;;;;;;12.47;8.80;;;19.10;1.00;;;;;;5063596;28;20395;-74
2021/06/24 01:08:59;;;;;;;14.53;8.40;;;19.10;1.00;;;;;;5057219;28;20487;-74
2021/06/24 01:11:25;;;;;;;12.77;9.20;;;19.10;1.00;;;;;;5052407;28;20423;-74
2021/06/24 01:13:52;;;;;;;13.70;8.63;;;19.10;1.00;;;;;;5057146;28;20181;-74
2021/06/24 01:16:18;;;;;;;14.70;8.37;;;19.10;1.00;;;;;;5052280;28;20422;-74
2021/06/24 01:18:44;;;;;;;27.50;8.90;;;19.10;1.00;;;;;;5053127;28;20401;-74
2021/06/24 01:21:09;;;;;;;13.13;9.10;;;19.10;1.00;;;;;;5052280;28;20427;-74
2021/06/24 01:23:53;;;;;;;19.77;9.30;;;19.10;1.00;;;;;;5053210;28;20291;-74
2021/06/24 01:26:21;;;;;;;13.37;9.10;;;19.10;1.00;;;;;;5053145;28;20602;-74
2021/06/24 01:28:47;;;;;;;12.80;9.13;;;19.10;1.00;;;;;;5052179;28;20480;-74
2021/06/24 01:31:24;;;;;;;19.77;8.90;;;19.00;1.00;;;;;;5054752;28;20867;-74
2021/06/24 01:33:54;;;;;;;15.50;9.40;;;19.00;1.00;;;;;;5070058;28;20166;-74
2021/06/24 01:36:20;;;;;;;16.67;9.00;;;;;;;;;;5054193;28;20436;-74
2021/06/24 01:38:46;;;;;;;13.73;9.63;;;19.10;1.00;;;;;;5056149;28;20376;-74
2021/06/24 01:41:13;;;;;;;15.73;8.90;;;19.10;1.00;;;;;;5056134;28;20408;-74
2021/06/24 01:43:39;;;;;;;11.40;8.30;;;19.10;1.00;;;;;;5057133;28;20421;-74
2021/06/24 01:46:05;;;;;;;19.30;9.10;;;19.00;1.00;;;;;;5057013;28;20407;-75
2021/06/24 01:48:31;;;;;;;19.47;9.30;;;19.00;1.00;;;;;;5055771;28;20209;-74
2021/06/24 01:50:59;;;;;;;13.40;8.70;;;19.00;1.00;;;;;;5056059;28;20428;-74
2021/06/24 01:53:25;;;;;;;14.13;8.67;;;;;;;;;;5055093;28;20227;-75
2021/06/24 01:55:52;;;;;;;12.17;8.67;;;18.90;1.00;;;;;;5068773;28;20416;-74
2021/06/24 01:58:23;;;;;;;14.63;8.97;;;18.90;1.00;;;;;;5060219;28;20424;-74
2021/06/24 02:00:58;;;;;;;14.50;8.60;;;18.80;1.00;;;;;;5055691;28;20512;-73
2021/06/24 02:03:25;;;;;;;16.00;9.37;;;18.80;1.00;;;;;;5054873;28;20463;-74
2021/06/24 02:05:57;;;;;;;14.93;8.47;;;18.80;1.00;;;;;;5070966;28;20412;-77
2021/06/24 02:08:53;;;;;;;10.87;8.03;;;18.80;1.00;;;;;;5075461;28;20449;-76
2021/06/24 02:11:36;;;;;;;13.23;8.90;;;18.80;1.00;;;;;;5073912;28;20402;-77
2021/06/24 02:14:02;;;;;;;12.23;8.57;;;18.70;1.00;;;;;;5075427;28;20390;-76
2021/06/24 02:16:30;;;;;;;10.90;8.30;;;18.80;1.00;;;;;;5075540;28;20405;-76
2021/06/24 02:19:29;;;;;;;17.97;9.60;;;18.80;1.00;;;;;;5075306;28;20458;-77
2021/06/24 02:22:06;;;;;;;12.10;9.00;;;18.80;1.00;;;;;;5057248;28;20519;-77
2021/06/24 02:24:36;;;;;;;15.80;8.83;;;18.80;1.00;;;;;;5055247;28;20482;-77
2021/06/24 02:27:02;;;;;;;24.10;9.87;;;18.70;1.00;;;;;;5056037;28;20427;-76
2021/06/24 02:29:36;;;;;;;22.43;8.83;;;18.70;1.00;;;;;;5055017;28;20491;-77
2021/06/24 02:32:06;;;;;;;15.90;9.93;;;18.70;1.00;;;;;;5064351;28;20416;-77
2021/06/24 02:34:44;;;;;;;15.40;8.87;;;18.70;1.00;;;;;;5075056;28;20477;-77
2021/06/24 02:37:10;;;;;;;16.30;10.00;;;18.60;1.00;;;;;;5072993;28;20419;-76
2021/06/24 02:40:12;;;;;;;12.70;8.70;;;18.60;1.00;;;;;;5075252;28;20389;-77
2021/06/24 02:42:38;;;;;;;12.50;9.27;;;18.60;1.00;;;;;;5075069;28;20398;-76
2021/06/24 02:45:47;;;;;;;14.00;9.43;;;18.60;1.00;;;;;;5063791;28;21398;-77
2021/06/24 02:48:24;;;;;;;12.97;8.47;;;18.60;1.00;;;;;;5053407;28;20546;-76
2021/06/24 02:50:54;;;;;;;17.57;9.93;;;18.60;1.00;;;;;;5055078;28;20494;-74
2021/06/24 02:53:20;;;;;;;16.27;9.77;;;;;;;;;;5054765;28;20420;-74
2021/06/24 02:55:46;;;;;;;12.57;9.77;;;18.60;1.00;;;;;;5056346;28;20413;-74
2021/06/24 02:58:13;;;;;;;12.90;8.47;;;18.70;1.00;;;;;;5068087;28;20922;-74
2021/06/24 03:00:42;;;;;;;20.27;10.33;;;18.70;1.00;;;;;;5074322;28;20516;-74
2021/06/24 03:03:07;;;;;;;20.77;9.77;;;18.80;1.00;;;;;;5074286;28;20417;-74
2021/06/24 03:06:06;;;;;;;14.90;8.90;;;18.80;1.00;;;;;;5075087;28;20411;-77
2021/06/24 03:08:31;;;;;;;12.47;9.07;;;18.80;1.00;;;;;;5072018;28;20178;-77
2021/06/24 03:11:30;;;;;;;20.43;10.30;;;18.90;1.00;;;;;;5074519;28;20384;-77
2021/06/24 03:14:17;;;;;;;15.87;9.40;;;18.90;1.00;;;;;;5069058;28;20189;-77
2021/06/24 03:16:48;;;;;;;16.30;9.90;;;18.80;1.00;;;;;;5054282;28;20501;-76
2021/06/24 03:19:24;;;;;;;13.37;9.50;;;18.70;99.90;;;;;;5055004;28;20910;-77
2021/06/24 03:21:50;;;;;;;15.63;8.80;;;18.70;1.00;;;;;;5054192;28;20419;-75
2021/06/24 03:24:18;;;;;;;17.17;10.37;;;18.70;1.00;;;;;;5054190;28;20482;-74
2021/06/24 03:26:43;;;;;;;19.20;10.00;;;18.70;99.90;;;;;;5054451;28;20197;-74
2021/06/24 03:29:10;;;;;;;15.10;9.77;;;;;;;;;;5063050;28;20484;-74
2021/06/24 03:31:36;;;;;;;13.77;8.93;;;18.70;1.00;;;;;;5071718;28;20222;-74
2021/06/24 03:34:02;;;;;;;17.23;9.03;;;18.70;1.00;;;;;;5072552;28;20794;-74
2021/06/24 03:36:27;;;;;;;15.00;9.80;;;18.80;1.00;;;;;;5074460;28;20418;-74
2021/06/24 03:38:53;;;;;;;18.60;9.83;;;18.80;99.90;;;;;;5073957;28;20175;-74
2021/06/24 03:41:26;;;;;;;22.70;9.93;;;18.80;99.90;;;;;;5073506;28;20163;-74
2021/06/24 03:43:53;;;;;;;16.97;9.17;;;18.80;1.00;;;;;;5065124;28;20431;-74
2021/06/24 03:46:30;;;;;;;19.87;9.87;;;18.80;1.00;;;;;;5053938;28;20414;-74
2021/06/24 03:48:56;;;;;;;18.53;9.93;;;18.80;1.00;;;;;;5053734;28;20863;-74
2021/06/24 03:51:24;;;;;;;19.13;9.60;;;18.80;1.00;;;;;;5054109;28;20437;-76
2021/06/24 03:53:50;;;;;;;16.30;9.47;;;18.80;1.00;;;;;;5055797;28;20208;-77
2021/06/24 03:56:15;;;;;;;16.53;9.83;;;18.90;1.00;;;;;;5073492;28;20403;-76
2021/06/24 03:58:42;;;;;;;14.13;8.47;;;18.90;1.00;;;;;;5067108;28;20187;-76
2021/06/24 04:01:24;;;;;;;14.30;8.67;;;18.80;99.90;;;;;;5053385;28;20187;-77
2021/06/24 04:03:50;;;;;;;17.87;9.63;;;18.90;1.00;;;;;;5054838;28;20428;-77
2021/06/24 04:06:53;;;;;;;13.67;8.77;;;18.90;99.90;;;;;;5073001;28;20410;-85
2021/06/24 04:12:41;;;;;;;15.57;9.77;;;18.90;99.90;;;;;;5052767;28;20404;-74
2021/06/24 04:15:12;;;;;;;19.67;9.80;;;18.80;99.90;;;;;;5054216;28;20756;-74
2021/06/24 04:17:48;;;;;;;14.37;9.20;;;18.80;99.90;;;;;;5055197;28;20279;-74
2021/06/24 04:20:16;;;;;;;17.77;9.97;;;18.80;99.90;;;;;;5073290;28;20892;-75
2021/06/24 04:22:42;;;;;;;18.97;9.90;;;18.80;99.90;;;;;;5071846;28;20519;-74
2021/06/24 04:25:10;;;;;;;14.80;9.07;;;18.80;99.90;;;;;;5069792;28;20438;-74
2021/06/24 04:27:36;;;;;;;17.10;10.20;;;18.80;99.90;;;;;;5072794;28;20773;-74
2021/06/24 04:30:03;;;;;;;15.20;9.27;;;18.90;99.90;;;;;;5054923;28;20486;-74
2021/06/24 04:32:36;;;;;;;15.83;9.53;;;18.80;99.90;;;;;;5053272;28;20385;-74
2021/06/24 04:35:03;;;;;;;24.23;10.33;;;18.80;99.90;;;;;;5053204;28;20394;-74
2021/06/24 04:37:29;;;;;;;16.90;9.70;;;18.80;99.90;;;;;;5053471;28;20404;-77
2021/06/24 04:39:54;;;;;;;17.60;10.00;;;18.80;99.90;;;;;;5053044;28;20374;-77
2021/06/24 04:42:21;;;;;;;19.03;9.43;;;;;;;;;;5052948;28;20645;-77
2021/06/24 04:44:55;;;;;;;12.70;8.73;;;18.80;99.90;;;;;;5052710;28;20213;-77
2021/06/24 04:47:36;;;;;;;19.27;9.60;;;18.90;99.90;;;;;;5053421;28;20397;-77
2021/06/24 04:50:12;;;;;;;18.90;8.80;;;18.90;99.90;;;;;;5052656;28;20445;-77
2021/06/24 04:52:54;;;;;;;20.97;9.80;;;18.90;99.90;;;;;;5053411;28;20866;-77
2021/06/24 04:55:20;;;;;;;17.70;10.10;;;18.90;99.90;;;;;;5053359;28;20514;-75
2021/06/24 04:57:48;;;;;;;15.27;9.37;;;19.00;99.90;;;;;;5054568;28;20417;-79
2021/06/24 05:03:36;;;;;;;15.43;8.00;;;;;;;;;;5053347;28;20854;-78
2021/06/24 05:13:07;;;;;;;12.57;8.83;;;18.90;99.90;;;;;;5076996;28;20370;-78
2021/06/24 05:18:55;;;;;;;11.63;8.97;;;18.90;99.90;;;;;;5062937;28;20407;-78
2021/06/24 05:28:04;;;;;;;18.70;10.43;;;19.00;1.00;;;;;;5076255;28;20446;-80
2021/06/24 05:44:36;;;;;;;28.37;12.87;;;18.70;1.00;;;;;;5064202;28;20398;-79
2021/06/24 05:57:07;;;;;;;28.57;14.70;;;18.50;1.00;;;;;;5055709;28;20433;-79
2021/06/24 05:59:55;;;;;;;24.70;15.30;;;18.60;1.00;;;;;;5074350;28;20433;-79
2021/06/24 06:02:59;;;;;;;30.43;16.03;;;18.60;1.00;;;;;;5070916;28;20166;-76
2021/06/24 06:05:26;;;;;;;24.90;15.07;;;;;;;;;;5069791;28;20465;-77
2021/06/24 06:07:52;;;;;;;25.23;15.60;;;18.60;1.00;;;;;;5075726;28;20854;-75
2021/06/24 06:10:18;;;;;;;27.80;15.53;;;18.60;1.00;;;;;;5072631;28;20444;-74
2021/06/24 06:12:44;;;;;;;24.50;15.60;;;;;;;;;;5074742;28;20730;-75
2021/06/24 06:15:10;;;;;;;31.07;17.00;;;18.50;1.00;;;;;;5067844;28;20212;-77
2021/06/24 06:17:38;;;;;;;96.00;27.30;;;18.50;1.00;;;;;;5053371;28;20409;-75
2021/06/24 06:20:05;;;;;;;33.83;16.70;;;18.50;1.00;;;;;;5056766;28;20933;-74
2021/06/24 06:22:31;;;;;;;29.47;16.70;;;18.60;1.00;;;;;;5073426;28;20429;-75
2021/06/24 06:24:57;;;;;;;29.37;15.93;;;18.50;1.00;;;;;;5072143;28;20898;-76
2021/06/24 06:27:22;;;;;;;32.43;17.10;;;18.50;1.00;;;;;;5073541;28;20167;-76
2021/06/24 06:29:48;;;;;;;23.47;16.00;;;;;;;;;;5055661;28;20230;-76
2021/06/24 06:32:14;;;;;;;31.93;16.77;;;18.60;1.00;;;;;;5054006;28;20170;-76
2021/06/24 06:34:40;;;;;;;37.50;17.10;;;;;;;;;;5054161;28;20505;-76
2021/06/24 06:37:06;;;;;;;39.17;16.23;;;;;;;;;;5060093;28;20585;-75
2021/06/24 06:39:32;;;;;;;27.10;15.30;;;18.60;1.00;;;;;;5068359;28;20963;-74
2021/06/24 06:41:58;;;;;;;27.00;14.90;;;;;;;;;;5057514;28;20480;-75
2021/06/24 06:44:24;;;;;;;29.90;16.30;;;;;;;;;;5068442;28;20217;-76
2021/06/24 06:46:50;;;;;;;27.27;16.70;;;;;;;;;;5065478;28;20889;-75
2021/06/24 06:49:16;;;;;;;30.73;15.97;;;18.70;1.00;;;;;;5053389;28;20419;-74
2021/06/24 06:51:41;;;;;;;28.90;15.90;;;18.80;1.00;;;;;;5054346;28;20898;-75
2021/06/24 06:54:07;;;;;;;25.17;16.27;;;;;;;;;;5054397;28;20178;-77
2021/06/24 06:56:36;;;;;;;34.03;15.67;;;18.80;1.00;;;;;;5073256;28;20249;-76
2021/06/24 06:59:05;;;;;;;31.17;16.23;;;18.90;1.00;;;;;;5066545;28;20444;-76
2021/06/24 07:01:31;;;;;;;22.87;15.43;;;18.90;1.00;;;;;;5065218;28;20415;-76
2021/06/24 07:03:56;;;;;;;26.30;15.13;;;18.90;1.00;;;;;;5073091;28;20428;-76
2021/06/24 07:06:25;;;;;;;26.43;15.60;;;19.00;1.00;;;;;;5074356;28;20173;-76
2021/06/24 07:08:56;;;;;;;26.00;16.20;;;19.00;1.00;;;;;;5058953;28;20560;-75
2021/06/24 07:11:22;;;;;;;26.70;16.07;;;19.10;1.00;;;;;;5064207;28;20877;-75
2021/06/24 07:13:48;;;;;;;23.90;16.03;;;19.10;1.00;;;;;;5054413;28;20480;-75
2021/06/24 07:16:18;;;;;;;26.23;15.37;;;19.10;1.00;;;;;;5054420;28;20407;-75
2021/06/24 07:18:48;;;;;;;57.40;16.80;;;19.20;1.00;;;;;;5053891;28;20194;-75
2021/06/24 07:21:30;;;;;;;26.53;17.57;;;19.20;1.00;;;;;;5058828;28;20826;-77
2021/06/24 07:23:56;;;;;;;38.87;16.37;;;;;;;;;;5068300;28;20767;-76
2021/06/24 07:26:54;;;;;;;27.87;15.40;;;19.30;1.00;;;;;;5054420;28;20779;-75
2021/06/24 07:29:20;;;;;;;23.40;15.77;;;;;;;;;;5054085;28;20449;-77
2021/06/24 07:31:46;;;;;;;25.27;15.40;;;19.30;1.00;;;;;;5058996;28;20758;-76
2021/06/24 07:34:24;;;;;;;23.47;14.60;;;19.30;1.00;;;;;;5053834;28;20721;-76
2021/06/24 07:36:50;;;;;;;26.13;15.53;;;19.40;1.00;;;;;;5070771;28;20391;-76
2021/06/24 07:39:16;;;;;;;24.67;14.80;;;19.30;1.00;;;;;;5073306;28;20396;-76
2021/06/24 07:41:41;;;;;;;21.97;15.43;;;19.40;1.00;;;;;;5067861;28;20512;-76
2021/06/24 07:44:07;;;;;;;26.60;15.20;;;;;;;;;;5054123;28;20204;-76
2021/06/24 07:46:33;;;;;;;20.80;14.00;;;;;;;;;;5050517;28;20178;-76
2021/06/24 07:48:59;;;;;;;26.57;15.37;;;19.70;1.00;;;;;;5062870;28;21018;-76
2021/06/24 07:51:25;;;;;;;24.00;14.90;;;;;;;;;;5070555;28;20503;-76
2021/06/24 07:53:51;;;;;;;27.93;14.17;;;19.80;1.00;;;;;;5058982;28;20203;-75
2021/06/24 07:56:17;;;;;;;20.73;14.40;;;19.80;1.00;;;;;;5051322;28;20827;-75
2021/06/24 07:58:43;;;;;;;19.10;14.07;;;19.90;1.00;;;;;;5051259;28;20176;-75
2021/06/24 08:01:09;;;;;;;25.07;14.60;;;19.90;1.00;;;;;;5055382;28;20432;-76
2021/06/24 08:03:35;;;;;;;23.37;14.40;;;20.00;1.00;;;;;;5070618;28;20696;-75
2021/06/24 08:06:02;;;;;;;28.97;15.87;;;20.00;1.00;;;;;;5058589;28;20737;-75
2021/06/24 08:08:28;;;;;;;21.40;13.80;;;20.00;1.00;;;;;;5052631;28;20402;-76
2021/06/24 08:10:55;;;;;;;24.20;15.83;;;20.00;1.00;;;;;;5052229;28;20800;-76
2021/06/24 08:13:22;;;;;;;22.10;14.43;;;20.10;1.00;;;;;;5052547;28;20191;-76
2021/06/24 08:15:49;;;;;;;21.53;14.27;;;20.10;1.00;;;;;;5052143;28;20417;-76
2021/06/24 08:18:15;;;;;;;34.07;15.30;;;20.10;1.00;;;;;;5055778;28;20422;-76
2021/06/24 08:20:41;;;;;;;29.57;15.30;;;;;;;;;;5066819;28;20432;-76
2021/06/24 08:23:07;;;;;;;23.77;14.53;;;20.10;1.00;;;;;;5051467;28;20520;-77
2021/06/24 08:25:33;;;;;;;29.27;15.17;;;20.10;1.00;;;;;;5052277;28;20505;-76
2021/06/24 08:27:58;;;;;;;22.80;14.90;;;20.10;1.00;;;;;;5052436;28;20569;-76
2021/06/24 08:30:30;;;;;;;21.93;14.70;;;20.20;1.00;;;;;;5051756;28;20194;-77
2021/06/24 08:32:55;;;;;;;23.33;14.50;;;20.20;1.00;;;;;;5063532;28;20179;-76
2021/06/24 08:35:21;;;;;;;21.03;15.00;;;20.20;1.00;;;;;;5071836;28;20462;-77
2021/06/24 08:37:47;;;;;;;23.07;14.73;;;20.10;1.00;;;;;;5072516;28;20174;-76
2021/06/24 08:40:14;;;;;;;26.70;15.40;;;20.10;1.00;;;;;;5063026;28;20186;-77
2021/06/24 08:42:41;;;;;;;21.37;14.30;;;20.20;1.00;;;;;;5060320;28;20956;-77
2021/06/24 08:45:08;;;;;;;25.43;14.67;;;20.20;1.00;;;;;;5064648;28;20429;-77
2021/06/24 08:47:35;;;;;;;25.93;13.67;;;20.30;1.00;;;;;;5064739;28;20421;-76
2021/06/24 08:50:01;;;;;;;25.70;14.00;;;20.10;1.00;;;;;;5052079;28;20469;-77
2021/06/24 08:52:28;;;;;;;23.87;14.13;;;20.20;1.00;;;;;;5057259;28;20428;-77
2021/06/24 08:54:54;;;;;;;22.50;14.90;;;20.30;1.00;;;;;;5056407;28;20473;-76
2021/06/24 08:57:20;;;;;;;22.30;13.53;;;;;;;;;;5049994;28;20765;-76
2021/06/24 08:59:47;;;;;;;20.83;12.63;;;20.30;1.00;;;;;;5056396;28;20513;-75
2021/06/24 09:02:14;;;;;;;24.13;13.37;;;20.30;1.00;;;;;;5071951;28;20406;-75
2021/06/24 09:04:50;;;;;;;24.87;14.67;;;20.20;1.00;;;;;;5071380;28;20436;-75
2021/06/24 09:07:21;;;;;;;27.17;14.13;;;;;;;;;;5059444;28;20497;-75
2021/06/24 09:09:56;;;;;;;23.63;13.70;;;20.20;1.00;;;;;;5057150;28;20503;-77
2021/06/24 09:12:22;;;;;;;29.60;15.40;;;20.20;1.00;;;;;;5070852;28;20423;-77
2021/06/24 09:15:02;;;;;;;22.57;14.37;;;20.30;1.00;;;;;;5071349;28;20434;-77
2021/06/24 09:17:36;;;;;;;26.07;14.63;;;20.30;1.00;;;;;;5069354;28;20376;-77
2021/06/24 09:20:18;;;;;;;27.13;15.60;;;20.30;1.00;;;;;;5070600;28;20800;-76
2021/06/24 09:23:15;;;;;;;23.57;15.20;;;20.30;1.00;;;;;;5056640;28;20438;-77
2021/06/24 09:25:44;;;;;;;29.57;15.23;;;20.30;1.00;;;;;;5051644;28;20372;-75
2021/06/24 09:28:12;;;;;;;25.27;14.97;;;20.20;1.00;;;;;;5051377;28;20504;-75
2021/06/24 09:30:41;;;;;;;25.90;15.43;;;20.20;1.00;;;;;;5051496;28;20920;-75
2021/06/24 09:33:10;;;;;;;24.30;14.90;;;20.20;1.00;;;;;;5057799;28;20397;-75
2021/06/24 09:35:37;;;;;;;30.63;15.97;;;20.10;1.00;;;;;;5068661;28;20647;-75
2021/06/24 09:38:13;;;;;;;22.77;14.90;;;20.10;1.00;;;;;;5050182;28;20433;-75
2021/06/24 09:40:38;;;;;;;27.23;14.90;;;20.10;1.00;;;;;;5063330;28;20465;-77
2021/06/24 09:43:04;;;;;;;24.90;14.47;;;19.90;1.00;;;;;;5067565;28;20477;-77
2021/06/24 09:45:30;;;;;;;24.00;14.83;;;;;;;;;;5053341;28;20174;-77
2021/06/24 09:48:12;;;;;;;29.03;15.87;;;19.80;1.00;;;;;;5051104;28;20220;-77
2021/06/24 09:50:39;;;;;;;25.37;17.00;;;19.80;1.00;;;;;;5051744;28;20466;-76
2021/06/24 09:53:12;;;;;;;24.37;15.00;;;19.80;1.00;;;;;;5051510;28;20459;-76
2021/06/24 09:55:39;;;;;;;24.77;15.43;;;19.80;1.00;;;;;;5054202;28;20520;-75
2021/06/24 09:58:17;;;;;;;23.27;15.17;;;19.80;1.00;;;;;;5063547;28;20876;-75
2021/06/24 10:00:53;;;;;;;24.73;15.33;;;19.80;1.00;;;;;;5072224;28;20423;-75
2021/06/24 10:03:20;;;;;;;24.50;16.23;;;19.80;1.00;;;;;;5073351;28;20420;-75
2021/06/24 10:05:48;;;;;;;26.37;14.23;;;19.80;1.00;;;;;;5073253;28;20867;-75
2021/06/24 10:08:13;;;;;;;28.00;15.67;;;19.60;1.00;;;;;;5074816;28;20450;-75
2021/06/24 10:10:42;;;;;;;24.93;15.57;;;19.70;1.00;;;;;;5072941;28;20460;-75
2021/06/24 10:13:09;;;;;;;30.50;16.00;;;19.80;1.00;;;;;;5065407;28;20488;-75
2021/06/24 10:15:35;;;;;;;30.53;15.60;;;;;;;;;;5057184;28;20446;-75
2021/06/24 10:18:01;;;;;;;27.83;15.60;;;19.90;1.00;;;;;;5054267;28;20398;-75
2021/06/24 10:20:29;;;;;;;23.30;15.60;;;;;;;;;;5054700;28;20773;-75
2021/06/24 10:23:15;;;;;;;23.03;15.30;;;19.90;1.00;;;;;;5052996;28;20526;-76
2021/06/24 10:25:43;;;;;;;25.03;15.93;;;19.90;1.00;;;;;;5059580;28;20443;-75
2021/06/24 10:28:09;;;;;;;26.97;14.80;;;19.90;1.00;;;;;;5074308;28;20757;-75
2021/06/24 10:30:40;;;;;;;24.60;15.53;;;19.90;1.00;;;;;;5062563;28;20460;-75
2021/06/24 10:33:10;;;;;;;25.60;15.70;;;19.90;1.00;;;;;;5065165;28;20415;-75
2021/06/24 10:35:38;;;;;;;27.70;15.77;;;19.90;1.00;;;;;;5061556;28;20438;-75
2021/06/24 10:38:05;;;;;;;22.60;15.30;;;19.90;1.00;;;;;;5070328;28;20408;-75
2021/06/24 10:40:37;;;;;;;31.83;15.07;;;19.90;1.00;;;;;;5065288;28;20397;-76
2021/06/24 10:43:13;;;;;;;27.83;15.60;;;19.90;1.00;;;;;;5056640;28;20428;-77
2021/06/24 10:45:41;;;;;;;32.87;15.40;;;20.00;1.00;;;;;;5071498;28;20770;-76
2021/06/24 10:48:24;;;;;;;35.63;16.33;;;19.90;1.00;;;;;;5071644;28;20911;-77
2021/06/24 10:51:07;;;;;;;25.50;15.50;;;20.00;1.00;;;;;;5061085;28;20430;-76
2021/06/24 10:53:35;;;;;;;23.43;15.47;;;20.00;1.00;;;;;;5066351;28;20944;-76
2021/06/24 10:56:01;;;;;;;26.80;15.80;;;20.00;1.00;;;;;;5074413;28;20454;-76
2021/06/24 10:58:28;;;;;;;21.57;15.30;;;;;;;;;;5065474;28;20428;-76
2021/06/24 11:00:57;;;;;;;23.50;14.40;;;20.10;1.00;;;;;;5073858;28;20203;-77
2021/06/24 11:03:30;;;;;;;23.30;14.80;;;20.10;1.00;;;;;;5054486;28;20449;-77
2021/06/24 11:06:07;;;;;;;21.10;14.27;;;20.10;1.00;;;;;;5055319;28;21259;-77
2021/06/24 11:08:32;;;;;;;21.93;13.63;;;20.00;1.00;;;;;;5055101;28;20519;-77
2021/06/24 11:11:07;;;;;;;31.13;13.30;;;20.10;1.00;;;;;;5058431;28;20539;-76
2021/06/24 11:13:39;;;;;;;24.57;14.00;;;20.20;1.00;;;;;;5072626;28;20154;-76
2021/06/24 11:16:15;;;;;;;19.53;13.40;;;20.20;1.00;;;;;;5072682;28;20471;-76
2021/06/24 11:18:41;;;;;;;21.23;13.43;;;20.20;1.00;;;;;;5058613;28;20453;-76
2021/06/24 11:21:43;;;;;;;18.80;13.17;;;20.30;1.00;;;;;;5065578;28;20773;-75
2021/06/24 11:24:12;;;;;;;19.83;12.87;;;20.40;1.00;;;;;;5051535;28;20475;-75
2021/06/24 11:26:47;;;;;;;25.93;14.40;;;20.40;1.00;;;;;;5071596;28;20490;-75
2021/06/24 11:31:56;;;;;;;23.23;13.50;;;20.60;1.00;;;;;;5072986;28;20405;-76
2021/06/24 11:37:15;;;;;;;32.60;14.00;;;20.70;1.00;;;;;;5052773;28;20397;-75
2021/06/24 11:40:06;;;;;;;26.10;13.20;;;20.70;1.00;;;;;;5057972;28;20421;-76
2021/06/24 11:42:40;;;;;;;20.50;12.67;;;20.80;1.00;;;;;;5050637;28;20434;-75
2021/06/24 11:45:08;;;;;;;24.77;14.07;;;20.80;99.90;;;;;;5070480;28;20437;-75
2021/06/24 11:47:36;;;;;;;22.47;14.37;;;20.80;99.90;;;;;;5061459;28;20484;-75
2021/06/24 12:04:15;;;;;;;20.20;13.10;;;21.00;99.90;;;;;;5050434;28;20807;-76
2021/06/24 12:06:49;;;;;;;26.37;13.23;;;21.10;99.90;;;;;;5052088;28;20443;-76
2021/06/24 12:09:21;;;;;;;19.53;12.47;;;21.00;99.90;;;;;;5068935;28;20545;-77
2021/06/24 12:11:48;;;;;;;19.00;12.77;;;21.00;99.90;;;;;;5068820;28;20396;-76
2021/06/24 12:14:19;;;;;;;17.93;12.70;;;21.00;99.90;;;;;;5046678;28;20465;-76
2021/06/24 12:17:03;;;;;;;27.97;13.33;;;21.00;99.90;;;;;;5050740;28;20426;-77
2021/06/24 12:19:50;;;;;;;20.40;12.70;;;21.00;99.90;;;;;;5054708;28;20476;-76
2021/06/24 12:22:40;;;;;;;25.47;12.47;;;20.90;99.90;;;;;;5057281;28;20922;-76
2021/06/24 12:25:14;;;;;;;18.77;11.83;;;20.90;99.90;;;;;;5060723;28;20434;-76
2021/06/24 12:27:47;;;;;;;17.63;12.00;;;21.00;99.90;;;;;;5056351;28;20770;-76
2021/06/24 12:30:30;;;;;;;17.60;12.07;;;21.10;99.90;;;;;;5073382;28;20446;-76
2021/06/24 12:32:57;;;;;;;20.53;11.90;;;;;;;;;;5072250;28;20486;-76
2021/06/24 12:35:34;;;;;;;14.70;10.23;;;21.10;99.90;;;;;;5059830;28;20410;-77
2021/06/24 12:41:30;;;;;;;21.73;9.87;;;21.60;99.90;;;;;;5052806;28;20446;-78
2021/06/24 12:48:05;;;;;;;15.13;9.80;;;21.80;99.90;;;;;;5052601;28;20398;-80
2021/06/24 12:50:48;;;;;;;11.87;8.80;;;22.10;99.90;;;;;;5061532;28;21028;-80
2021/06/24 12:53:37;;;;;;;17.77;9.47;;;22.40;99.90;;;;;;5052656;28;20846;-80
2021/06/24 12:59:36;;;;;;;11.70;7.57;;;23.00;99.90;;;;;;5053809;28;20395;-77
2021/06/24 13:02:08;;;;;;;13.37;7.70;;;23.30;99.90;;;;;;5052588;28;20398;-78
2021/06/24 13:04:38;;;;;;;8.67;6.10;;;23.40;99.90;;;;;;5052353;28;20465;-77
2021/06/24 13:07:06;;;;;;;10.80;6.40;;;23.40;99.90;;;;;;5052930;28;20521;-77
2021/06/24 13:09:54;;;;;;;8.07;5.80;;;23.50;99.90;;;;;;5066039;28;20450;-78
2021/06/24 13:12:59;;;;;;;9.40;6.30;;;23.70;99.90;;;;;;5068771;28;20493;-85
2021/06/24 13:15:32;;;;;;;8.10;5.67;;;23.80;99.90;;;;;;5073132;28;20387;-75
2021/06/24 13:18:00;;;;;;;9.03;6.20;;;24.00;99.90;;;;;;5071162;28;20418;-85
2021/06/24 13:20:30;;;;;;;6.70;5.63;;;24.10;99.90;;;;;;5070837;28;20453;-84
2021/06/24 13:26:20;;;;;;;11.70;6.67;;;24.00;99.90;;;;;;5066889;28;20770;-86
2021/06/24 13:28:57;;;;;;;9.43;6.33;;;24.10;99.90;;;;;;5053764;28;20443;-86
2021/06/24 13:31:27;;;;;;;8.23;6.33;;;24.10;99.90;;;;;;5071305;28;20901;-86
2021/06/24 13:34:15;;;;;;;10.40;6.17;;;24.20;99.90;;;;;;5070593;28;20423;-85
2021/06/24 13:56:56;;;;;;;7.63;6.50;;;24.40;99.90;;;;;;5056218;28;20538;-84
2021/06/24 14:06:06;;;;;;;10.43;7.50;;;24.40;99.90;;;;;;5076232;28;20791;-85
2021/06/24 14:08:54;;;;;;;11.43;6.97;;;24.50;99.90;;;;;;5073740;28;20429;-86
2021/06/24 14:18:04;;;;;;;13.23;7.93;;;;;;;;;;5074564;28;20413;-80
2021/06/24 14:20:30;;;;;;;9.87;6.90;;;24.30;99.90;;;;;;5057330;28;20429;-78
2021/06/24 14:26:18;;;;;;;13.43;7.30;;;24.40;99.90;;;;;;5072857;28;20406;-83
2021/06/24 14:32:06;;;;;;;13.20;7.60;;;24.20;99.90;;;;;;5055816;28;21083;-87
2021/06/24 14:35:00;;;;;;;11.30;7.30;;;24.20;99.90;;;;;;5054766;28;20451;-85
2021/06/24 14:43:54;;;;;;;13.63;7.30;;;23.80;99.90;;;;;;5055079;28;20468;-80
2021/06/24 14:46:20;;;;;;;8.97;7.00;;;23.40;99.90;;;;;;5056171;28;20411;-79
2021/06/24 14:48:49;;;;;;;13.23;7.37;;;23.20;99.90;;;;;;5074606;28;20406;-80
2021/06/24 14:51:15;;;;;;;9.70;7.77;;;23.00;99.90;;;;;;5074679;28;20435;-79
2021/06/24 14:53:42;;;;;;;12.43;7.80;;;22.90;99.90;;;;;;5074616;28;20415;-78
2021/06/24 14:56:08;;;;;;;10.17;8.17;;;;;;;;;;5075351;28;20408;-82
2021/06/24 14:58:34;;;;;;;11.93;7.70;;;22.90;99.90;;;;;;5064776;28;20412;-74
2021/06/24 15:01:01;;;;;;;10.53;8.10;;;22.90;99.90;;;;;;5054308;28;20416;-75
2021/06/24 15:03:28;;;;;;;16.03;9.03;;;23.00;99.90;;;;;;5052502;28;20187;-76
2021/06/24 15:05:53;;;;;;;11.57;7.90;;;23.00;99.90;;;;;;5064293;28;20415;-75
2021/06/24 15:08:19;;;;;;;9.80;7.40;;;22.90;99.90;;;;;;5057766;28;20474;-75
2021/06/24 15:10:54;;;;;;;9.93;7.63;;;22.90;99.90;;;;;;5074780;28;20201;-75
2021/06/24 15:17:24;;;;;;;9.43;7.30;;;23.00;99.90;;;;;;5058097;28;20417;-83
2021/06/24 15:20:10;;;;;;;11.90;7.97;;;23.00;99.90;;;;;;5054448;28;20421;-83
2021/06/24 15:23:06;;;;;;;12.50;8.07;;;23.00;99.90;;;;;;5068520;28;20444;-82